Terminal Aerodrome Forecast
Issued by NWS

Home | Current Version | Previous Version | Text Only | Print | Product List | Glossary Off
Versions: 1 2 3 4 5 6 7 8 9 10 11 12 13 14 15

000
FTUS43 KICT 210520
TAFSLN
TAF
KSLN 210520Z 2106/2206 08007KT P6SM VCSH OVC150
     FM211500 07014G20KT P6SM VCSH OVC080
     FM212000 05014KT P6SM -SHRA VCTS OVC030CB
     FM212300 03014G20KT 6SM -SHRA OVC035
     FM220000 02014KT 6SM SHRA OVC030=

USA.gov is the U.S. government's official web portal to all federal, state and local government web resources and services.